UAL1343 KEWR-KSFO
Flight info
| Callsign | UAL1343 |
|---|---|
| Flight time | 3h 37m |
| Altitude | 34000 |
| Route | COATE Q436 RAAKK Q438 RUBYY BAE FSD DDY/N0457F360 MLD MYBAD Q132 ANAHO LEGGS BDEGA4 |
| Aircraft | B752/M-SDE2E3FGHIJ3J4J7RWXY/LB1 |
Departure
| Time | 2026-05-07 18:21 |
|---|---|
| Airport | Newark Liberty International Airport (KEWR) |
Arrival
| Time | 2026-05-07 21:58 |
|---|---|
| Airport | San Francisco International Airport (KSFO) |
| Time | Latitude | Longitude | Altitude | Speed | Heading |
|---|---|---|---|---|---|
| 2026-05-07 18:06 | 40.69563 | -74.17237 | 29 ft | 0 kts | 317° |
| 2026-05-07 18:12 | 40.69560 | -74.17234 | 28 ft | 1 kts | 317° |
| 2026-05-07 18:12 | 40.69550 | -74.17222 | 28 ft | 3 kts | 326° |
| 2026-05-07 18:13 | 40.69532 | -74.17212 | 28 ft | 3 kts | 347° |
| 2026-05-07 18:13 | 40.69512 | -74.17211 | 28 ft | 1 kts | 7° |
| 2026-05-07 18:14 | 40.69513 | -74.17210 | 28 ft | 1 kts | 8° |
| 2026-05-07 18:14 | 40.69523 | -74.17183 | 28 ft | 6 kts | 91° |
| 2026-05-07 18:14 | 40.69521 | -74.17140 | 28 ft | 4 kts | 96° |
| 2026-05-07 18:14 | 40.69526 | -74.17052 | 28 ft | 15 kts | 80° |
| 2026-05-07 18:15 | 40.69509 | -74.16975 | 28 ft | 4 kts | 177° |
| 2026-05-07 18:15 | 40.69473 | -74.16973 | 28 ft | 10 kts | 179° |
| 2026-05-07 18:15 | 40.69367 | -74.16975 | 28 ft | 21 kts | 185° |
| 2026-05-07 18:15 | 40.69228 | -74.17028 | 28 ft | 18 kts | 203° |
| 2026-05-07 18:16 | 40.69139 | -74.17086 | 28 ft | 12 kts | 207° |
| 2026-05-07 18:16 | 40.69045 | -74.17147 | 28 ft | 18 kts | 201° |
| 2026-05-07 18:16 | 40.68918 | -74.17226 | 28 ft | 24 kts | 206° |
| 2026-05-07 18:16 | 40.68760 | -74.17328 | 28 ft | 23 kts | 206° |
| 2026-05-07 18:17 | 40.68640 | -74.17404 | 28 ft | 18 kts | 205° |
| 2026-05-07 18:17 | 40.68500 | -74.17492 | 28 ft | 25 kts | 206° |
| 2026-05-07 18:17 | 40.68330 | -74.17601 | 28 ft | 27 kts | 207° |
| 2026-05-07 18:17 | 40.68185 | -74.17695 | 28 ft | 23 kts | 205° |
| 2026-05-07 18:18 | 40.68020 | -74.17798 | 28 ft | 26 kts | 205° |
| 2026-05-07 18:18 | 40.67883 | -74.17884 | 28 ft | 16 kts | 206° |
| 2026-05-07 18:18 | 40.67779 | -74.17949 | 28 ft | 22 kts | 206° |
| 2026-05-07 18:18 | 40.67640 | -74.18039 | 28 ft | 17 kts | 195° |
| 2026-05-07 18:19 | 40.67577 | -74.18012 | 28 ft | 3 kts | 132° |
| 2026-05-07 18:19 | 40.67564 | -74.17981 | 28 ft | 9 kts | 112° |
| 2026-05-07 18:19 | 40.67589 | -74.17908 | 28 ft | 0 kts | 24° |
| 2026-05-07 18:19 | 40.67595 | -74.17905 | 28 ft | 9 kts | 23° |
| 2026-05-07 18:20 | 40.67770 | -74.17798 | 28 ft | 40 kts | 24° |
| 2026-05-07 18:20 | 40.68155 | -74.17554 | 29 ft | 84 kts | 26° |
| 2026-05-07 18:20 | 40.68806 | -74.17138 | 29 ft | 124 kts | 25° |
| 2026-05-07 18:20 | 40.69686 | -74.16580 | 29 ft | 157 kts | 24° |
| 2026-05-07 18:21 | 40.70726 | -74.15908 | 225 ft | 167 kts | 22° |
| 2026-05-07 18:21 | 40.71650 | -74.14951 | 671 ft | 176 kts | 41° |
| 2026-05-07 18:21 | 40.72492 | -74.13676 | 987 ft | 192 kts | 45° |
| 2026-05-07 18:21 | 40.73355 | -74.12360 | 1219 ft | 194 kts | 35° |
| 2026-05-07 18:22 | 40.74403 | -74.11124 | 1560 ft | 209 kts | 36° |
| 2026-05-07 18:22 | 40.74783 | -74.10753 | 1712 ft | 210 kts | 30° |
| 2026-05-07 18:22 | 40.77204 | -74.10306 | 2167 ft | 232 kts | 341° |
| 2026-05-07 18:22 | 40.78585 | -74.11435 | 2681 ft | 236 kts | 315° |
| 2026-05-07 18:23 | 40.79564 | -74.13202 | 3193 ft | 233 kts | 296° |
| 2026-05-07 18:23 | 40.79967 | -74.15285 | 3704 ft | 243 kts | 275° |
| 2026-05-07 18:23 | 40.79916 | -74.17570 | 4237 ft | 256 kts | 265° |
| 2026-05-07 18:23 | 40.79694 | -74.19943 | 4857 ft | 262 kts | 265° |
| 2026-05-07 18:24 | 40.79647 | -74.22331 | 5644 ft | 258 kts | 281° |
| 2026-05-07 18:24 | 40.80349 | -74.24483 | 6353 ft | 257 kts | 306° |
| 2026-05-07 18:24 | 40.81104 | -74.25667 | 6891 ft | 254 kts | 311° |
| 2026-05-07 18:24 | 40.82727 | -74.27891 | 7792 ft | 255 kts | 313° |
| 2026-05-07 18:25 | 40.83985 | -74.29579 | 8347 ft | 260 kts | 313° |
| 2026-05-07 18:25 | 40.85689 | -74.31860 | 9173 ft | 263 kts | 312° |
| 2026-05-07 18:25 | 40.87406 | -74.34157 | 10016 ft | 266 kts | 311° |
| 2026-05-07 18:25 | 40.90117 | -74.37799 | 10809 ft | 290 kts | 309° |
| 2026-05-07 18:26 | 40.93058 | -74.41763 | 11702 ft | 310 kts | 308° |
| 2026-05-07 18:26 | 40.96117 | -74.45875 | 13068 ft | 314 kts | 307° |
| 2026-05-07 18:26 | 40.99198 | -74.50023 | 14369 ft | 317 kts | 306° |
| 2026-05-07 18:26 | 41.01767 | -74.53485 | 15366 ft | 321 kts | 305° |
| 2026-05-07 18:27 | 41.04908 | -74.57725 | 16508 ft | 325 kts | 304° |
| 2026-05-07 18:27 | 41.08099 | -74.62039 | 17590 ft | 328 kts | 304° |
| 2026-05-07 18:27 | 41.11328 | -74.66409 | 18599 ft | 333 kts | 303° |
| 2026-05-07 18:27 | 41.14337 | -74.70975 | 19385 ft | 331 kts | 294° |
| 2026-05-07 18:28 | 41.16627 | -74.76284 | 20432 ft | 326 kts | 288° |
| 2026-05-07 18:28 | 41.18825 | -74.81478 | 21396 ft | 329 kts | 289° |
| 2026-05-07 18:28 | 41.21129 | -74.86748 | 22342 ft | 330 kts | 289° |
| 2026-05-07 18:28 | 41.23435 | -74.92058 | 23153 ft | 333 kts | 288° |
| 2026-05-07 18:29 | 41.25749 | -74.97406 | 23972 ft | 334 kts | 288° |
| 2026-05-07 18:29 | 41.28086 | -75.02810 | 24746 ft | 337 kts | 288° |
| 2026-05-07 18:29 | 41.30439 | -75.08266 | 25373 ft | 342 kts | 288° |
| 2026-05-07 18:29 | 41.32806 | -75.13758 | 26067 ft | 344 kts | 287° |
| 2026-05-07 18:30 | 41.35193 | -75.19312 | 26728 ft | 347 kts | 287° |
| 2026-05-07 18:30 | 41.37603 | -75.24925 | 27339 ft | 351 kts | 288° |
| 2026-05-07 18:30 | 41.40037 | -75.30607 | 27937 ft | 354 kts | 288° |
| 2026-05-07 18:30 | 41.42482 | -75.36322 | 28489 ft | 357 kts | 288° |
| 2026-05-07 18:31 | 41.44946 | -75.42096 | 29006 ft | 361 kts | 288° |
| 2026-05-07 18:31 | 41.47424 | -75.48000 | 29487 ft | 363 kts | 286° |
| 2026-05-07 18:31 | 41.49354 | -75.54166 | 29948 ft | 359 kts | 281° |
| 2026-05-07 18:31 | 41.51083 | -75.60447 | 30493 ft | 361 kts | 281° |
| 2026-05-07 18:32 | 41.52861 | -75.66672 | 30938 ft | 365 kts | 282° |
| 2026-05-07 18:32 | 41.54687 | -75.73023 | 31374 ft | 369 kts | 282° |
| 2026-05-07 18:32 | 41.56522 | -75.79445 | 31825 ft | 371 kts | 282° |
| 2026-05-07 18:32 | 41.58371 | -75.85932 | 32238 ft | 374 kts | 282° |
| 2026-05-07 18:33 | 41.60230 | -75.92483 | 32665 ft | 377 kts | 282° |
| 2026-05-07 18:33 | 41.62067 | -75.98963 | 33220 ft | 375 kts | 282° |
| 2026-05-07 18:33 | 41.63931 | -76.05555 | 33751 ft | 374 kts | 282° |
| 2026-05-07 18:33 | 41.65769 | -76.12093 | 33900 ft | 381 kts | 282° |
| 2026-05-07 18:34 | 41.68240 | -76.20901 | 33901 ft | 393 kts | 282° |
| 2026-05-07 18:34 | 41.75950 | -76.48505 | 33892 ft | 395 kts | 282° |
| 2026-05-07 18:35 | 41.83567 | -76.76094 | 33898 ft | 394 kts | 282° |
| 2026-05-07 18:35 | 41.91080 | -77.03639 | 33893 ft | 394 kts | 282° |
| 2026-05-07 18:36 | 41.98547 | -77.31384 | 33889 ft | 397 kts | 282° |
| 2026-05-07 18:36 | 42.06165 | -77.59551 | 33897 ft | 403 kts | 283° |
| 2026-05-07 18:37 | 42.13797 | -77.87867 | 33917 ft | 401 kts | 283° |
| 2026-05-07 18:37 | 42.21356 | -78.16237 | 33918 ft | 402 kts | 283° |
| 2026-05-07 18:38 | 42.28638 | -78.44836 | 33919 ft | 403 kts | 282° |
| 2026-05-07 18:38 | 42.35732 | -78.73666 | 33923 ft | 405 kts | 282° |
| 2026-05-07 18:39 | 42.42812 | -79.02642 | 33937 ft | 407 kts | 282° |
| 2026-05-07 18:39 | 42.49894 | -79.31727 | 33949 ft | 407 kts | 283° |
| 2026-05-07 18:40 | 42.56879 | -79.60788 | 33947 ft | 406 kts | 282° |
| 2026-05-07 18:40 | 42.61762 | -79.90364 | 33943 ft | 398 kts | 269° |
| 2026-05-07 18:41 | 42.62990 | -80.20379 | 33939 ft | 399 kts | 270° |
| 2026-05-07 18:41 | 42.64208 | -80.50379 | 33939 ft | 400 kts | 270° |
| 2026-05-07 18:42 | 42.65248 | -80.80762 | 33932 ft | 402 kts | 270° |
| 2026-05-07 18:42 | 42.66209 | -81.11164 | 33926 ft | 403 kts | 270° |
| 2026-05-07 18:43 | 42.68366 | -81.41369 | 33930 ft | 405 kts | 276° |
| 2026-05-07 18:43 | 42.71827 | -81.71586 | 33934 ft | 404 kts | 275° |
| 2026-05-07 18:44 | 42.75202 | -82.01875 | 33938 ft | 404 kts | 275° |
| 2026-05-07 18:44 | 42.78486 | -82.32104 | 33932 ft | 406 kts | 275° |
| 2026-05-07 18:45 | 42.81924 | -82.62675 | 33938 ft | 409 kts | 277° |
| 2026-05-07 18:45 | 42.86090 | -82.93220 | 33933 ft | 411 kts | 277° |
| 2026-05-07 18:46 | 42.90164 | -83.24004 | 33952 ft | 413 kts | 277° |
| 2026-05-07 18:46 | 42.93168 | -83.55087 | 33966 ft | 412 kts | 274° |
| 2026-05-07 18:47 | 42.95843 | -83.86080 | 33970 ft | 413 kts | 274° |
| 2026-05-07 18:47 | 42.98447 | -84.17292 | 33962 ft | 416 kts | 274° |
| 2026-05-07 18:48 | 43.00981 | -84.48712 | 33964 ft | 417 kts | 274° |
| 2026-05-07 18:48 | 43.02750 | -84.80595 | 33966 ft | 418 kts | 272° |
| 2026-05-07 18:49 | 43.04008 | -85.12218 | 33970 ft | 420 kts | 272° |
| 2026-05-07 18:49 | 43.05193 | -85.44276 | 33980 ft | 422 kts | 272° |
| 2026-05-07 18:50 | 43.06281 | -85.76132 | 33982 ft | 424 kts | 272° |
| 2026-05-07 18:50 | 43.07300 | -86.08690 | 34001 ft | 425 kts | 272° |
| 2026-05-07 18:51 | 43.08218 | -86.40994 | 34008 ft | 425 kts | 272° |
| 2026-05-07 18:51 | 43.09041 | -86.73220 | 34009 ft | 425 kts | 272° |
| 2026-05-07 18:52 | 43.09776 | -87.05650 | 33999 ft | 425 kts | 272° |
| 2026-05-07 18:52 | 43.10416 | -87.38113 | 33987 ft | 425 kts | 272° |
| 2026-05-07 18:53 | 43.10957 | -87.70260 | 33972 ft | 426 kts | 272° |
| 2026-05-07 18:53 | 43.11405 | -88.02560 | 33969 ft | 427 kts | 272° |
| 2026-05-07 18:54 | 43.12293 | -88.35154 | 33947 ft | 424 kts | 278° |
| 2026-05-07 18:54 | 43.15443 | -88.67154 | 33955 ft | 423 kts | 278° |
| 2026-05-07 18:55 | 43.18485 | -88.98812 | 33958 ft | 422 kts | 278° |
| 2026-05-07 18:55 | 43.21471 | -89.30844 | 33931 ft | 422 kts | 278° |
| 2026-05-07 18:56 | 43.24365 | -89.62895 | 33913 ft | 423 kts | 278° |
| 2026-05-07 18:56 | 43.27170 | -89.94976 | 33917 ft | 424 kts | 278° |
| 2026-05-07 18:57 | 43.29885 | -90.27093 | 33920 ft | 422 kts | 278° |
| 2026-05-07 18:57 | 43.32482 | -90.58890 | 33919 ft | 421 kts | 278° |
| 2026-05-07 18:58 | 43.35000 | -90.90854 | 33917 ft | 419 kts | 278° |
| 2026-05-07 18:58 | 43.37416 | -91.22677 | 33916 ft | 418 kts | 278° |
| 2026-05-07 18:59 | 43.39745 | -91.54551 | 33914 ft | 419 kts | 278° |
| 2026-05-07 18:59 | 43.41991 | -91.86534 | 33912 ft | 420 kts | 278° |
| 2026-05-07 19:00 | 43.44141 | -92.18461 | 33917 ft | 421 kts | 278° |
| 2026-05-07 19:00 | 43.46208 | -92.50535 | 33921 ft | 419 kts | 278° |
| 2026-05-07 19:01 | 43.48169 | -92.82375 | 33922 ft | 416 kts | 278° |
| 2026-05-07 19:01 | 43.50027 | -93.13998 | 33924 ft | 414 kts | 278° |
| 2026-05-07 19:02 | 43.51798 | -93.45668 | 33928 ft | 414 kts | 278° |
| 2026-05-07 19:02 | 43.53476 | -93.77267 | 33931 ft | 414 kts | 279° |
| 2026-05-07 19:03 | 43.55077 | -94.09086 | 33938 ft | 415 kts | 279° |
| 2026-05-07 19:03 | 43.56574 | -94.40608 | 33948 ft | 414 kts | 278° |
| 2026-05-07 19:04 | 43.57994 | -94.72402 | 33941 ft | 415 kts | 278° |
| 2026-05-07 19:04 | 43.59323 | -95.04202 | 33939 ft | 415 kts | 278° |
| 2026-05-07 19:05 | 43.60562 | -95.36049 | 33930 ft | 416 kts | 278° |
| 2026-05-07 19:05 | 43.61712 | -95.67962 | 33927 ft | 417 kts | 278° |
| 2026-05-07 19:06 | 43.62771 | -95.99935 | 33926 ft | 418 kts | 278° |
| 2026-05-07 19:06 | 43.64187 | -96.48013 | 33927 ft | 420 kts | 277° |
| 2026-05-07 19:07 | 43.64936 | -96.80285 | 33918 ft | 422 kts | 275° |
| 2026-05-07 19:07 | 43.64376 | -97.12862 | 33915 ft | 425 kts | 273° |
| 2026-05-07 19:08 | 43.63679 | -97.45658 | 33921 ft | 427 kts | 273° |
| 2026-05-07 19:08 | 43.63026 | -97.72944 | 33926 ft | 428 kts | 273° |
| 2026-05-07 19:09 | 43.62152 | -98.05809 | 33928 ft | 428 kts | 272° |
| 2026-05-07 19:09 | 43.61182 | -98.38780 | 33930 ft | 430 kts | 272° |
| 2026-05-07 19:10 | 43.60114 | -98.71812 | 33937 ft | 432 kts | 271° |
| 2026-05-07 19:10 | 43.58943 | -99.05053 | 33942 ft | 435 kts | 271° |
| 2026-05-07 19:11 | 43.57692 | -99.37834 | 33946 ft | 438 kts | 270° |
| 2026-05-07 19:11 | 43.57386 | -99.45495 | 33944 ft | 439 kts | 270° |
| 2026-05-07 19:12 | 43.57044 | -99.53905 | 33942 ft | 440 kts | 270° |
| 2026-05-07 19:12 | 43.56694 | -99.62352 | 33938 ft | 440 kts | 270° |
| 2026-05-07 19:13 | 43.56338 | -99.70796 | 33935 ft | 441 kts | 270° |
| 2026-05-07 19:13 | 43.55976 | -99.79241 | 33933 ft | 441 kts | 270° |
| 2026-05-07 19:14 | 43.55607 | -99.87704 | 33932 ft | 442 kts | 270° |
| 2026-05-07 19:14 | 43.55231 | -99.96166 | 33930 ft | 442 kts | 270° |
| 2026-05-07 19:15 | 43.54849 | -100.04638 | 33928 ft | 443 kts | 269° |
| 2026-05-07 19:15 | 43.54461 | -100.13110 | 33928 ft | 443 kts | 269° |
| 2026-05-07 19:16 | 43.54065 | -100.21596 | 33925 ft | 443 kts | 269° |
| 2026-05-07 19:16 | 43.53666 | -100.30006 | 33923 ft | 443 kts | 269° |
| 2026-05-07 19:17 | 43.53259 | -100.38481 | 33917 ft | 443 kts | 269° |
| 2026-05-07 19:17 | 43.52845 | -100.46945 | 33913 ft | 443 kts | 269° |
| 2026-05-07 19:18 | 43.52424 | -100.55408 | 33910 ft | 442 kts | 269° |
| 2026-05-07 19:18 | 43.51998 | -100.63857 | 33908 ft | 442 kts | 269° |
| 2026-05-07 19:19 | 43.51566 | -100.72313 | 33906 ft | 442 kts | 269° |
| 2026-05-07 19:19 | 43.51128 | -100.80746 | 33904 ft | 442 kts | 268° |
| 2026-05-07 19:20 | 43.50682 | -100.89223 | 33903 ft | 442 kts | 268° |
| 2026-05-07 19:20 | 43.50231 | -100.97677 | 33902 ft | 443 kts | 268° |
| 2026-05-07 19:21 | 43.49773 | -101.06132 | 33902 ft | 443 kts | 268° |
| 2026-05-07 19:21 | 43.49309 | -101.14589 | 33903 ft | 443 kts | 268° |
| 2026-05-07 19:22 | 43.48840 | -101.23023 | 33903 ft | 444 kts | 268° |
| 2026-05-07 19:22 | 43.48362 | -101.31503 | 33905 ft | 444 kts | 268° |
| 2026-05-07 19:23 | 43.47877 | -101.40000 | 33906 ft | 445 kts | 268° |
| 2026-05-07 19:23 | 43.47385 | -101.48500 | 33907 ft | 446 kts | 268° |
| 2026-05-07 19:24 | 43.46888 | -101.56966 | 33908 ft | 446 kts | 267° |
| 2026-05-07 19:24 | 43.46378 | -101.65551 | 33910 ft | 447 kts | 267° |
| 2026-05-07 19:25 | 43.45864 | -101.74087 | 33912 ft | 448 kts | 267° |
| 2026-05-07 19:25 | 43.45347 | -101.82578 | 33912 ft | 448 kts | 267° |
| 2026-05-07 19:26 | 43.44818 | -101.91148 | 33916 ft | 450 kts | 267° |
| 2026-05-07 19:26 | 43.44284 | -101.99716 | 33931 ft | 450 kts | 267° |
| 2026-05-07 19:27 | 43.44014 | -102.03997 | 34212 ft | 449 kts | 267° |
| 2026-05-07 19:27 | 43.43742 | -102.08280 | 34510 ft | 448 kts | 267° |
| 2026-05-07 19:27 | 43.43471 | -102.12540 | 34797 ft | 448 kts | 267° |
| 2026-05-07 19:27 | 43.43195 | -102.16816 | 35064 ft | 447 kts | 267° |
| 2026-05-07 19:28 | 43.42921 | -102.21076 | 35322 ft | 447 kts | 267° |
| 2026-05-07 19:28 | 43.42642 | -102.25355 | 35567 ft | 447 kts | 267° |
| 2026-05-07 19:28 | 43.42366 | -102.29578 | 35810 ft | 446 kts | 267° |
| 2026-05-07 19:28 | 43.42086 | -102.33839 | 35898 ft | 446 kts | 267° |
| 2026-05-07 19:29 | 43.41522 | -102.42351 | 35926 ft | 446 kts | 267° |
| 2026-05-07 19:29 | 43.40955 | -102.50811 | 35927 ft | 445 kts | 267° |
| 2026-05-07 19:30 | 43.40379 | -102.59304 | 35923 ft | 445 kts | 267° |
| 2026-05-07 19:30 | 43.39797 | -102.67791 | 35922 ft | 445 kts | 267° |
| 2026-05-07 19:31 | 43.39213 | -102.76205 | 35921 ft | 444 kts | 267° |
| 2026-05-07 19:31 | 43.38619 | -102.84681 | 35921 ft | 444 kts | 267° |
| 2026-05-07 19:32 | 43.38018 | -102.93158 | 35920 ft | 444 kts | 267° |
| 2026-05-07 19:32 | 43.37414 | -103.01597 | 35918 ft | 443 kts | 267° |
| 2026-05-07 19:33 | 43.36808 | -103.09977 | 35925 ft | 443 kts | 267° |
| 2026-05-07 19:33 | 43.36191 | -103.18413 | 35934 ft | 443 kts | 267° |
| 2026-05-07 19:34 | 43.35568 | -103.26838 | 35936 ft | 443 kts | 267° |
| 2026-05-07 19:34 | 43.34939 | -103.35273 | 35939 ft | 443 kts | 267° |
| 2026-05-07 19:35 | 43.34307 | -103.43653 | 35941 ft | 443 kts | 267° |
| 2026-05-07 19:35 | 43.33665 | -103.52080 | 35944 ft | 443 kts | 267° |
| 2026-05-07 19:36 | 43.33021 | -103.60463 | 35945 ft | 443 kts | 267° |
| 2026-05-07 19:36 | 43.32367 | -103.68880 | 35950 ft | 443 kts | 266° |
| 2026-05-07 19:37 | 43.31705 | -103.77324 | 35953 ft | 443 kts | 266° |
| 2026-05-07 19:37 | 43.31043 | -103.85684 | 35954 ft | 443 kts | 266° |
| 2026-05-07 19:38 | 43.30370 | -103.94096 | 35955 ft | 443 kts | 266° |
| 2026-05-07 19:38 | 43.29690 | -104.02517 | 35956 ft | 443 kts | 267° |
| 2026-05-07 19:39 | 43.29003 | -104.10939 | 35956 ft | 443 kts | 267° |
| 2026-05-07 19:39 | 43.28315 | -104.19293 | 35956 ft | 443 kts | 267° |
| 2026-05-07 19:40 | 43.27616 | -104.27715 | 35960 ft | 442 kts | 267° |
| 2026-05-07 19:40 | 43.26913 | -104.36109 | 35965 ft | 443 kts | 267° |
| 2026-05-07 19:41 | 43.26205 | -104.44482 | 35964 ft | 443 kts | 267° |
| 2026-05-07 19:41 | 43.25492 | -104.52843 | 35965 ft | 443 kts | 267° |
| 2026-05-07 19:42 | 43.24769 | -104.61246 | 35968 ft | 442 kts | 267° |
| 2026-05-07 19:42 | 43.24038 | -104.69654 | 35969 ft | 442 kts | 267° |
| 2026-05-07 19:43 | 43.23305 | -104.78027 | 35969 ft | 442 kts | 267° |
| 2026-05-07 19:43 | 43.22570 | -104.86334 | 35968 ft | 442 kts | 268° |
| 2026-05-07 19:44 | 43.21823 | -104.94717 | 35969 ft | 442 kts | 268° |
| 2026-05-07 19:44 | 43.21069 | -105.03100 | 35968 ft | 442 kts | 268° |
| 2026-05-07 19:45 | 43.20308 | -105.11490 | 35969 ft | 442 kts | 268° |
| 2026-05-07 19:45 | 43.19546 | -105.19828 | 35968 ft | 442 kts | 268° |
| 2026-05-07 19:46 | 43.18774 | -105.28194 | 35969 ft | 442 kts | 268° |
| 2026-05-07 19:46 | 43.17996 | -105.36559 | 35969 ft | 442 kts | 268° |
| 2026-05-07 19:47 | 43.17216 | -105.44877 | 35972 ft | 442 kts | 268° |
| 2026-05-07 19:47 | 43.16425 | -105.53236 | 35974 ft | 442 kts | 268° |
| 2026-05-07 19:48 | 43.15630 | -105.61582 | 35976 ft | 442 kts | 268° |
| 2026-05-07 19:48 | 43.14828 | -105.69929 | 35979 ft | 442 kts | 268° |
| 2026-05-07 19:49 | 43.14018 | -105.78285 | 35980 ft | 442 kts | 268° |
| 2026-05-07 19:49 | 43.13206 | -105.86603 | 35983 ft | 442 kts | 268° |
| 2026-05-07 19:50 | 43.12383 | -105.94948 | 35985 ft | 442 kts | 268° |
| 2026-05-07 19:50 | 43.11554 | -106.03295 | 35989 ft | 442 kts | 269° |
| 2026-05-07 19:51 | 43.10717 | -106.11636 | 35990 ft | 441 kts | 269° |
| 2026-05-07 19:51 | 43.09877 | -106.19957 | 35993 ft | 441 kts | 269° |
| 2026-05-07 19:52 | 43.09027 | -106.28232 | 35994 ft | 441 kts | 268° |
| 2026-05-07 19:52 | 43.08253 | -106.35119 | 35996 ft | 441 kts | 268° |
| 2026-05-07 19:53 | 43.07291 | -106.43414 | 35997 ft | 441 kts | 268° |
| 2026-05-07 19:53 | 43.06316 | -106.51732 | 35998 ft | 441 kts | 268° |
| 2026-05-07 19:54 | 43.05345 | -106.59959 | 35999 ft | 441 kts | 268° |
| 2026-05-07 19:54 | 43.04361 | -106.68239 | 36000 ft | 441 kts | 268° |
| 2026-05-07 19:55 | 43.03371 | -106.76525 | 36001 ft | 441 kts | 268° |
| 2026-05-07 19:55 | 43.02373 | -106.84821 | 36002 ft | 441 kts | 268° |
| 2026-05-07 19:56 | 43.01372 | -106.93081 | 36003 ft | 441 kts | 268° |
| 2026-05-07 19:56 | 43.00370 | -107.01313 | 36004 ft | 441 kts | 268° |
| 2026-05-07 19:57 | 42.99357 | -107.09571 | 36006 ft | 440 kts | 268° |
| 2026-05-07 19:57 | 42.98345 | -107.17771 | 36008 ft | 440 kts | 268° |
| 2026-05-07 19:58 | 42.97321 | -107.26023 | 36002 ft | 440 kts | 268° |
| 2026-05-07 19:58 | 42.96291 | -107.34275 | 35996 ft | 440 kts | 268° |
| 2026-05-07 19:59 | 42.95254 | -107.42520 | 35994 ft | 440 kts | 268° |
| 2026-05-07 19:59 | 42.94219 | -107.50714 | 35993 ft | 440 kts | 268° |
| 2026-05-07 20:00 | 42.93173 | -107.58933 | 35993 ft | 440 kts | 268° |
| 2026-05-07 20:00 | 42.92121 | -107.67153 | 35991 ft | 439 kts | 268° |
| 2026-05-07 20:01 | 42.91063 | -107.75376 | 35993 ft | 440 kts | 268° |
| 2026-05-07 20:01 | 42.90004 | -107.83559 | 35997 ft | 440 kts | 268° |
| 2026-05-07 20:02 | 42.88933 | -107.91786 | 35995 ft | 440 kts | 268° |
| 2026-05-07 20:02 | 42.87856 | -108.00013 | 35993 ft | 440 kts | 267° |
| 2026-05-07 20:03 | 42.86772 | -108.08232 | 35991 ft | 439 kts | 267° |
| 2026-05-07 20:03 | 42.85690 | -108.16397 | 35990 ft | 439 kts | 267° |
| 2026-05-07 20:04 | 42.84603 | -108.24549 | 35983 ft | 439 kts | 267° |
| 2026-05-07 20:04 | 42.83506 | -108.32740 | 35979 ft | 439 kts | 267° |
| 2026-05-07 20:05 | 42.82401 | -108.40941 | 35980 ft | 440 kts | 267° |
| 2026-05-07 20:05 | 42.81287 | -108.49155 | 35981 ft | 440 kts | 267° |
| 2026-05-07 20:06 | 42.80176 | -108.57307 | 35986 ft | 440 kts | 267° |
| 2026-05-07 20:06 | 42.79054 | -108.65494 | 35988 ft | 440 kts | 267° |
| 2026-05-07 20:07 | 42.77923 | -108.73692 | 35989 ft | 440 kts | 267° |
| 2026-05-07 20:07 | 42.76785 | -108.81899 | 35989 ft | 440 kts | 266° |
| 2026-05-07 20:08 | 42.75644 | -108.90089 | 35992 ft | 440 kts | 266° |
| 2026-05-07 20:08 | 42.74503 | -108.98232 | 35999 ft | 440 kts | 266° |
| 2026-05-07 20:09 | 42.73348 | -109.06428 | 36011 ft | 440 kts | 266° |
| 2026-05-07 20:10 | 42.71611 | -109.18669 | 36037 ft | 441 kts | 266° |
| 2026-05-07 20:10 | 42.70439 | -109.26873 | 36055 ft | 441 kts | 266° |
| 2026-05-07 20:11 | 42.69259 | -109.35091 | 36072 ft | 442 kts | 266° |
| 2026-05-07 20:11 | 42.68082 | -109.43244 | 36086 ft | 442 kts | 266° |
| 2026-05-07 20:12 | 42.66892 | -109.51437 | 36097 ft | 442 kts | 266° |
| 2026-05-07 20:12 | 42.65694 | -109.59651 | 36105 ft | 443 kts | 266° |
| 2026-05-07 20:13 | 42.64490 | -109.67852 | 36110 ft | 443 kts | 266° |
| 2026-05-07 20:13 | 42.63277 | -109.76078 | 36116 ft | 443 kts | 266° |
| 2026-05-07 20:14 | 42.62059 | -109.84292 | 36118 ft | 443 kts | 266° |
| 2026-05-07 20:14 | 42.60837 | -109.92488 | 36119 ft | 443 kts | 266° |
| 2026-05-07 20:15 | 42.59614 | -110.00649 | 36119 ft | 444 kts | 266° |
| 2026-05-07 20:15 | 42.58376 | -110.08871 | 36119 ft | 444 kts | 265° |
| 2026-05-07 20:16 | 42.57136 | -110.17058 | 36119 ft | 444 kts | 265° |
| 2026-05-07 20:16 | 42.55884 | -110.25282 | 36119 ft | 444 kts | 265° |
| 2026-05-07 20:17 | 42.54635 | -110.33443 | 36120 ft | 444 kts | 265° |
| 2026-05-07 20:17 | 42.53376 | -110.41630 | 36118 ft | 443 kts | 265° |
| 2026-05-07 20:18 | 42.52110 | -110.49817 | 36119 ft | 443 kts | 265° |
| 2026-05-07 20:18 | 42.50841 | -110.57985 | 36119 ft | 443 kts | 265° |
| 2026-05-07 20:19 | 42.49566 | -110.66150 | 36115 ft | 443 kts | 265° |
| 2026-05-07 20:19 | 42.48286 | -110.74311 | 36112 ft | 443 kts | 265° |
| 2026-05-07 20:20 | 42.46995 | -110.82497 | 36110 ft | 443 kts | 265° |
| 2026-05-07 20:20 | 42.45707 | -110.90627 | 36109 ft | 443 kts | 265° |
| 2026-05-07 20:21 | 42.44405 | -110.98798 | 36108 ft | 443 kts | 265° |
| 2026-05-07 20:21 | 42.43100 | -111.06950 | 36107 ft | 443 kts | 265° |
| 2026-05-07 20:22 | 42.41787 | -111.15112 | 36108 ft | 443 kts | 265° |
| 2026-05-07 20:22 | 42.40468 | -111.23277 | 36108 ft | 443 kts | 264° |
| 2026-05-07 20:23 | 42.39148 | -111.31407 | 36109 ft | 444 kts | 264° |
| 2026-05-07 20:23 | 42.37819 | -111.39546 | 36108 ft | 445 kts | 264° |
| 2026-05-07 20:24 | 42.36476 | -111.47739 | 36106 ft | 445 kts | 264° |
| 2026-05-07 20:24 | 42.35130 | -111.55911 | 36105 ft | 446 kts | 264° |
| 2026-05-07 20:25 | 42.33772 | -111.64110 | 36104 ft | 446 kts | 264° |
| 2026-05-07 20:25 | 42.32418 | -111.72248 | 36102 ft | 446 kts | 264° |
| 2026-05-07 20:26 | 42.31046 | -111.80452 | 36099 ft | 446 kts | 264° |
| 2026-05-07 20:26 | 42.29671 | -111.88637 | 36095 ft | 447 kts | 264° |
| 2026-05-07 20:27 | 42.28290 | -111.96817 | 36087 ft | 448 kts | 264° |
| 2026-05-07 20:27 | 42.26899 | -112.05020 | 36085 ft | 448 kts | 264° |
| 2026-05-07 20:28 | 42.25499 | -112.13225 | 36081 ft | 447 kts | 264° |
| 2026-05-07 20:28 | 42.24098 | -112.21395 | 36082 ft | 448 kts | 264° |
| 2026-05-07 20:29 | 42.22686 | -112.29595 | 36084 ft | 448 kts | 264° |
| 2026-05-07 20:29 | 42.21270 | -112.37774 | 36083 ft | 448 kts | 263° |
| 2026-05-07 20:30 | 42.19752 | -112.45921 | 36080 ft | 449 kts | 259° |
| 2026-05-07 20:30 | 42.17718 | -112.53874 | 36081 ft | 452 kts | 257° |
| 2026-05-07 20:31 | 42.15547 | -112.61856 | 36077 ft | 453 kts | 257° |
| 2026-05-07 20:31 | 42.13353 | -112.69848 | 36073 ft | 453 kts | 256° |
| 2026-05-07 20:32 | 42.11167 | -112.77775 | 36072 ft | 453 kts | 256° |
| 2026-05-07 20:32 | 42.08965 | -112.85738 | 36072 ft | 453 kts | 256° |
| 2026-05-07 20:33 | 42.06757 | -112.93698 | 36072 ft | 453 kts | 256° |
| 2026-05-07 20:33 | 42.04545 | -113.01643 | 36071 ft | 453 kts | 256° |
| 2026-05-07 20:34 | 42.02343 | -113.09529 | 36069 ft | 453 kts | 256° |
| 2026-05-07 20:34 | 42.00120 | -113.17466 | 36065 ft | 453 kts | 256° |
| 2026-05-07 20:35 | 41.97883 | -113.25440 | 36066 ft | 458 kts | 255° |
| 2026-05-07 20:35 | 41.96006 | -113.32108 | 36066 ft | 459 kts | 255° |
| 2026-05-07 20:36 | 41.93742 | -113.40119 | 36066 ft | 459 kts | 255° |
| 2026-05-07 20:36 | 41.91469 | -113.48132 | 36066 ft | 458 kts | 255° |
| 2026-05-07 20:37 | 41.89195 | -113.56126 | 36066 ft | 458 kts | 255° |
| 2026-05-07 20:37 | 41.86917 | -113.64107 | 36067 ft | 457 kts | 255° |
| 2026-05-07 20:38 | 41.84634 | -113.72081 | 36067 ft | 457 kts | 255° |
| 2026-05-07 20:38 | 41.82349 | -113.80039 | 36069 ft | 457 kts | 255° |
| 2026-05-07 20:39 | 41.80067 | -113.87959 | 36073 ft | 457 kts | 255° |
| 2026-05-07 20:39 | 41.77774 | -113.95896 | 36074 ft | 456 kts | 255° |
| 2026-05-07 20:40 | 41.75475 | -114.03828 | 36074 ft | 457 kts | 255° |
| 2026-05-07 20:40 | 41.73168 | -114.11761 | 36078 ft | 457 kts | 255° |
| 2026-05-07 20:41 | 41.70853 | -114.19703 | 36080 ft | 458 kts | 255° |
| 2026-05-07 20:41 | 41.68531 | -114.27641 | 36081 ft | 458 kts | 254° |
| 2026-05-07 20:42 | 41.66197 | -114.35597 | 36082 ft | 458 kts | 254° |
| 2026-05-07 20:42 | 41.63876 | -114.43484 | 36084 ft | 459 kts | 254° |
| 2026-05-07 20:43 | 41.61528 | -114.51439 | 36088 ft | 460 kts | 254° |
| 2026-05-07 20:43 | 41.59172 | -114.59395 | 36091 ft | 460 kts | 254° |
| 2026-05-07 20:44 | 41.56807 | -114.67358 | 36092 ft | 461 kts | 253° |
| 2026-05-07 20:44 | 41.54444 | -114.75294 | 36094 ft | 462 kts | 253° |
| 2026-05-07 20:45 | 41.52061 | -114.83269 | 36092 ft | 462 kts | 253° |
| 2026-05-07 20:45 | 41.49669 | -114.91250 | 36092 ft | 463 kts | 253° |
| 2026-05-07 20:46 | 41.47269 | -114.99233 | 36094 ft | 463 kts | 253° |
| 2026-05-07 20:46 | 41.44868 | -115.07191 | 36096 ft | 463 kts | 253° |
| 2026-05-07 20:47 | 41.42472 | -115.15113 | 36098 ft | 464 kts | 253° |
| 2026-05-07 20:47 | 41.40055 | -115.23078 | 36101 ft | 464 kts | 253° |
| 2026-05-07 20:48 | 41.37629 | -115.31052 | 36104 ft | 464 kts | 253° |
| 2026-05-07 20:48 | 41.35194 | -115.39025 | 36106 ft | 464 kts | 252° |
| 2026-05-07 20:49 | 41.32763 | -115.46966 | 36109 ft | 464 kts | 252° |
| 2026-05-07 20:49 | 41.30321 | -115.54916 | 36112 ft | 464 kts | 252° |
| 2026-05-07 20:50 | 41.27875 | -115.62855 | 36114 ft | 464 kts | 252° |
| 2026-05-07 20:50 | 41.25437 | -115.70747 | 36117 ft | 464 kts | 252° |
| 2026-05-07 20:51 | 41.22974 | -115.78695 | 36119 ft | 464 kts | 252° |
| 2026-05-07 20:51 | 41.20512 | -115.86619 | 36121 ft | 465 kts | 252° |
| 2026-05-07 20:52 | 41.18034 | -115.94567 | 36123 ft | 465 kts | 252° |
| 2026-05-07 20:52 | 41.15552 | -116.02507 | 36123 ft | 465 kts | 252° |
| 2026-05-07 20:53 | 41.13079 | -116.10397 | 36123 ft | 466 kts | 251° |
| 2026-05-07 20:53 | 41.10576 | -116.18357 | 36123 ft | 466 kts | 251° |
| 2026-05-07 20:54 | 41.08072 | -116.26296 | 36122 ft | 467 kts | 251° |
| 2026-05-07 20:54 | 41.05561 | -116.34235 | 36121 ft | 467 kts | 251° |
| 2026-05-07 20:55 | 41.03061 | -116.42114 | 36121 ft | 467 kts | 251° |
| 2026-05-07 20:55 | 41.00536 | -116.50050 | 36120 ft | 468 kts | 251° |
| 2026-05-07 20:56 | 40.97999 | -116.57999 | 36119 ft | 468 kts | 251° |
| 2026-05-07 20:56 | 40.95475 | -116.65884 | 36119 ft | 468 kts | 251° |
| 2026-05-07 20:57 | 40.92932 | -116.73805 | 36118 ft | 468 kts | 251° |
| 2026-05-07 20:57 | 40.90368 | -116.81770 | 36118 ft | 469 kts | 251° |
| 2026-05-07 20:58 | 40.87809 | -116.89696 | 36119 ft | 469 kts | 251° |
| 2026-05-07 20:58 | 40.85260 | -116.97567 | 36120 ft | 469 kts | 250° |
| 2026-05-07 20:59 | 40.82685 | -117.05496 | 36121 ft | 469 kts | 250° |
| 2026-05-07 20:59 | 40.80103 | -117.13424 | 36122 ft | 469 kts | 250° |
| 2026-05-07 21:00 | 40.77519 | -117.21336 | 36122 ft | 469 kts | 250° |
| 2026-05-07 21:00 | 40.74926 | -117.29252 | 36119 ft | 469 kts | 250° |
| 2026-05-07 21:01 | 40.72346 | -117.37106 | 36119 ft | 470 kts | 250° |
| 2026-05-07 21:01 | 40.69740 | -117.45018 | 36119 ft | 470 kts | 250° |
| 2026-05-07 21:02 | 40.67130 | -117.52918 | 36119 ft | 471 kts | 250° |
| 2026-05-07 21:02 | 40.64503 | -117.60847 | 36118 ft | 471 kts | 250° |
| 2026-05-07 21:03 | 40.61876 | -117.68753 | 36118 ft | 471 kts | 250° |
| 2026-05-07 21:03 | 40.59254 | -117.76621 | 36119 ft | 472 kts | 249° |
| 2026-05-07 21:04 | 40.56610 | -117.84536 | 36117 ft | 472 kts | 249° |
| 2026-05-07 21:04 | 40.53960 | -117.92442 | 36106 ft | 472 kts | 249° |
| 2026-05-07 21:05 | 40.51300 | -118.00358 | 36105 ft | 473 kts | 249° |
| 2026-05-07 21:05 | 40.48642 | -118.08247 | 36105 ft | 473 kts | 249° |
| 2026-05-07 21:06 | 40.45970 | -118.16150 | 36104 ft | 473 kts | 249° |
| 2026-05-07 21:06 | 40.43291 | -118.24056 | 36103 ft | 473 kts | 249° |
| 2026-05-07 21:07 | 40.40622 | -118.31907 | 36102 ft | 473 kts | 249° |
| 2026-05-07 21:07 | 40.37865 | -118.39749 | 36099 ft | 474 kts | 246° |
| 2026-05-07 21:08 | 40.34801 | -118.47389 | 36098 ft | 475 kts | 244° |
| 2026-05-07 21:08 | 40.31642 | -118.55034 | 36097 ft | 475 kts | 244° |
| 2026-05-07 21:09 | 40.28553 | -118.62605 | 36093 ft | 475 kts | 245° |
| 2026-05-07 21:09 | 40.25453 | -118.70249 | 36092 ft | 474 kts | 245° |
| 2026-05-07 21:10 | 40.22353 | -118.77873 | 36095 ft | 474 kts | 245° |
| 2026-05-07 21:10 | 40.19247 | -118.85484 | 36097 ft | 474 kts | 244° |
| 2026-05-07 21:11 | 40.16132 | -118.93093 | 36101 ft | 474 kts | 244° |
| 2026-05-07 21:11 | 40.11445 | -119.04510 | 36108 ft | 474 kts | 244° |
| 2026-05-07 21:12 | 40.08318 | -119.12103 | 36116 ft | 475 kts | 244° |
| 2026-05-07 21:12 | 40.05201 | -119.19651 | 36124 ft | 475 kts | 244° |
| 2026-05-07 21:13 | 40.02058 | -119.27246 | 36131 ft | 475 kts | 244° |
| 2026-05-07 21:13 | 39.98906 | -119.34841 | 36137 ft | 476 kts | 243° |
| 2026-05-07 21:14 | 39.95772 | -119.42472 | 36150 ft | 478 kts | 245° |
| 2026-05-07 21:14 | 39.92867 | -119.50254 | 36161 ft | 477 kts | 246° |
| 2026-05-07 21:15 | 39.90027 | -119.58064 | 36171 ft | 477 kts | 246° |
| 2026-05-07 21:15 | 39.87203 | -119.65838 | 36182 ft | 477 kts | 246° |
| 2026-05-07 21:16 | 39.84364 | -119.73635 | 36190 ft | 477 kts | 246° |
| 2026-05-07 21:16 | 39.81519 | -119.81429 | 36197 ft | 476 kts | 246° |
| 2026-05-07 21:17 | 39.78668 | -119.89220 | 36198 ft | 476 kts | 246° |
| 2026-05-07 21:17 | 39.75830 | -119.96954 | 36209 ft | 476 kts | 246° |
| 2026-05-07 21:18 | 39.72968 | -120.04732 | 36212 ft | 476 kts | 246° |
| 2026-05-07 21:18 | 39.70103 | -120.12501 | 36216 ft | 476 kts | 246° |
| 2026-05-07 21:19 | 39.67716 | -120.18956 | 36214 ft | 476 kts | 246° |
| 2026-05-07 21:19 | 39.64843 | -120.26706 | 36228 ft | 476 kts | 246° |
| 2026-05-07 21:20 | 39.61969 | -120.34442 | 36247 ft | 476 kts | 246° |
| 2026-05-07 21:20 | 39.58616 | -120.43440 | 36258 ft | 476 kts | 245° |
| 2026-05-07 21:21 | 39.56196 | -120.49918 | 36264 ft | 476 kts | 245° |
| 2026-05-07 21:21 | 39.53300 | -120.57652 | 36272 ft | 477 kts | 245° |
| 2026-05-07 21:22 | 39.50416 | -120.65333 | 36280 ft | 477 kts | 245° |
| 2026-05-07 21:22 | 39.47509 | -120.73055 | 36277 ft | 477 kts | 245° |
| 2026-05-07 21:23 | 39.44595 | -120.80777 | 36262 ft | 477 kts | 245° |
| 2026-05-07 21:23 | 39.41682 | -120.88476 | 36253 ft | 477 kts | 245° |
| 2026-05-07 21:24 | 39.38764 | -120.96170 | 36238 ft | 476 kts | 245° |
| 2026-05-07 21:24 | 39.35838 | -121.03864 | 36215 ft | 476 kts | 245° |
| 2026-05-07 21:25 | 39.32807 | -121.11419 | 36184 ft | 477 kts | 239° |
| 2026-05-07 21:25 | 39.28894 | -121.18334 | 36179 ft | 478 kts | 232° |
| 2026-05-07 21:26 | 39.24746 | -121.25038 | 36169 ft | 478 kts | 232° |
| 2026-05-07 21:26 | 39.20703 | -121.31837 | 36145 ft | 477 kts | 233° |
| 2026-05-07 21:27 | 39.16722 | -121.38693 | 36116 ft | 477 kts | 234° |
| 2026-05-07 21:27 | 39.12740 | -121.45538 | 36102 ft | 477 kts | 234° |
| 2026-05-07 21:28 | 39.08741 | -121.52370 | 36099 ft | 477 kts | 233° |
| 2026-05-07 21:28 | 39.04762 | -121.59147 | 36099 ft | 477 kts | 233° |
| 2026-05-07 21:29 | 39.01173 | -121.65248 | 36100 ft | 477 kts | 233° |
| 2026-05-07 21:29 | 38.97161 | -121.72057 | 36100 ft | 477 kts | 233° |
| 2026-05-07 21:30 | 38.93149 | -121.78851 | 36101 ft | 477 kts | 233° |
| 2026-05-07 21:30 | 38.89132 | -121.85640 | 36103 ft | 477 kts | 233° |
| 2026-05-07 21:31 | 38.85111 | -121.92420 | 36102 ft | 477 kts | 233° |
| 2026-05-07 21:31 | 38.81081 | -121.99201 | 36102 ft | 477 kts | 233° |
| 2026-05-07 21:32 | 38.77058 | -122.05958 | 35630 ft | 477 kts | 233° |
| 2026-05-07 21:32 | 38.75025 | -122.09368 | 34660 ft | 483 kts | 233° |
| 2026-05-07 21:32 | 38.72996 | -122.12766 | 33679 ft | 488 kts | 233° |
| 2026-05-07 21:33 | 38.70921 | -122.16238 | 32683 ft | 493 kts | 233° |
| 2026-05-07 21:33 | 38.68825 | -122.19739 | 31685 ft | 496 kts | 233° |
| 2026-05-07 21:33 | 38.66709 | -122.23271 | 30683 ft | 499 kts | 233° |
| 2026-05-07 21:33 | 38.64589 | -122.26806 | 29684 ft | 501 kts | 233° |
| 2026-05-07 21:34 | 38.62464 | -122.30344 | 28701 ft | 502 kts | 233° |
| 2026-05-07 21:34 | 38.60363 | -122.33841 | 28352 ft | 489 kts | 233° |
| 2026-05-07 21:34 | 38.58330 | -122.37218 | 28288 ft | 469 kts | 233° |
| 2026-05-07 21:34 | 38.56383 | -122.40452 | 28272 ft | 448 kts | 233° |
| 2026-05-07 21:35 | 38.54496 | -122.43507 | 28243 ft | 429 kts | 230° |
| 2026-05-07 21:35 | 38.52431 | -122.46204 | 27852 ft | 420 kts | 223° |
| 2026-05-07 21:35 | 38.50198 | -122.48583 | 27240 ft | 417 kts | 218° |
| 2026-05-07 21:35 | 38.47922 | -122.50795 | 26673 ft | 414 kts | 217° |
| 2026-05-07 21:36 | 38.45633 | -122.53004 | 26163 ft | 409 kts | 218° |
| 2026-05-07 21:36 | 38.43402 | -122.55216 | 25665 ft | 405 kts | 219° |
| 2026-05-07 21:36 | 38.41212 | -122.57448 | 25165 ft | 400 kts | 219° |
| 2026-05-07 21:36 | 38.39058 | -122.59676 | 24670 ft | 396 kts | 219° |
| 2026-05-07 21:37 | 38.36929 | -122.61884 | 24184 ft | 392 kts | 219° |
| 2026-05-07 21:37 | 38.34819 | -122.64066 | 23704 ft | 388 kts | 219° |
| 2026-05-07 21:37 | 38.32732 | -122.66214 | 23226 ft | 384 kts | 219° |
| 2026-05-07 21:37 | 38.30656 | -122.68346 | 22752 ft | 381 kts | 219° |
| 2026-05-07 21:38 | 38.28607 | -122.70448 | 22283 ft | 377 kts | 219° |
| 2026-05-07 21:38 | 38.26566 | -122.72539 | 21816 ft | 374 kts | 219° |
| 2026-05-07 21:38 | 38.24543 | -122.74581 | 21304 ft | 372 kts | 217° |
| 2026-05-07 21:38 | 38.22246 | -122.75999 | 20723 ft | 373 kts | 196° |
| 2026-05-07 21:39 | 38.19689 | -122.76326 | 20365 ft | 367 kts | 176° |
| 2026-05-07 21:39 | 38.17191 | -122.75734 | 19943 ft | 364 kts | 165° |
| 2026-05-07 21:39 | 38.14775 | -122.74796 | 19468 ft | 362 kts | 163° |
| 2026-05-07 21:39 | 38.12377 | -122.73874 | 19027 ft | 359 kts | 165° |
| 2026-05-07 21:40 | 38.09962 | -122.73072 | 18583 ft | 356 kts | 167° |
| 2026-05-07 21:40 | 38.07552 | -122.72368 | 18125 ft | 353 kts | 168° |
| 2026-05-07 21:40 | 38.05158 | -122.71701 | 17687 ft | 351 kts | 168° |
| 2026-05-07 21:40 | 38.02812 | -122.71043 | 17260 ft | 348 kts | 168° |
| 2026-05-07 21:41 | 38.00454 | -122.70367 | 16830 ft | 345 kts | 168° |
| 2026-05-07 21:41 | 37.98118 | -122.69691 | 16404 ft | 343 kts | 168° |
| 2026-05-07 21:41 | 37.95804 | -122.69019 | 15981 ft | 340 kts | 168° |
| 2026-05-07 21:41 | 37.93528 | -122.68358 | 15416 ft | 328 kts | 168° |
| 2026-05-07 21:42 | 37.91352 | -122.67721 | 15015 ft | 314 kts | 167° |
| 2026-05-07 21:42 | 37.89356 | -122.66735 | 14622 ft | 304 kts | 152° |
| 2026-05-07 21:42 | 37.87651 | -122.65203 | 14297 ft | 301 kts | 141° |
| 2026-05-07 21:42 | 37.86083 | -122.63410 | 13914 ft | 305 kts | 138° |
| 2026-05-07 21:43 | 37.84514 | -122.61595 | 13520 ft | 306 kts | 140° |
| 2026-05-07 21:43 | 37.82915 | -122.59848 | 13189 ft | 305 kts | 141° |
| 2026-05-07 21:43 | 37.81283 | -122.58129 | 12828 ft | 306 kts | 142° |
| 2026-05-07 21:43 | 37.79641 | -122.56412 | 12419 ft | 308 kts | 142° |
| 2026-05-07 21:44 | 37.77988 | -122.54672 | 12046 ft | 308 kts | 142° |
| 2026-05-07 21:44 | 37.76348 | -122.52935 | 11660 ft | 305 kts | 142° |
| 2026-05-07 21:44 | 37.74722 | -122.51213 | 11329 ft | 304 kts | 142° |
| 2026-05-07 21:44 | 37.73106 | -122.49495 | 11114 ft | 302 kts | 141° |
| 2026-05-07 21:45 | 37.71515 | -122.47799 | 11049 ft | 304 kts | 141° |
| 2026-05-07 21:45 | 37.69877 | -122.46053 | 11027 ft | 305 kts | 141° |
| 2026-05-07 21:45 | 37.68282 | -122.44354 | 11020 ft | 300 kts | 141° |
| 2026-05-07 21:45 | 37.66718 | -122.42690 | 11006 ft | 288 kts | 141° |
| 2026-05-07 21:46 | 37.65194 | -122.41070 | 11001 ft | 284 kts | 142° |
| 2026-05-07 21:46 | 37.63677 | -122.39462 | 11002 ft | 285 kts | 142° |
| 2026-05-07 21:46 | 37.62159 | -122.37853 | 11002 ft | 285 kts | 142° |
| 2026-05-07 21:46 | 37.60636 | -122.36243 | 11002 ft | 285 kts | 142° |
| 2026-05-07 21:47 | 37.59138 | -122.34661 | 11002 ft | 285 kts | 142° |
| 2026-05-07 21:47 | 37.57616 | -122.33056 | 11002 ft | 285 kts | 142° |
| 2026-05-07 21:47 | 37.56088 | -122.31444 | 10856 ft | 287 kts | 142° |
| 2026-05-07 21:47 | 37.54544 | -122.29818 | 10470 ft | 289 kts | 142° |
| 2026-05-07 21:48 | 37.52996 | -122.28188 | 10077 ft | 290 kts | 142° |
| 2026-05-07 21:48 | 37.51443 | -122.26552 | 9689 ft | 291 kts | 142° |
| 2026-05-07 21:48 | 37.49884 | -122.24911 | 9223 ft | 294 kts | 142° |
| 2026-05-07 21:48 | 37.48328 | -122.23275 | 8786 ft | 295 kts | 142° |
| 2026-05-07 21:49 | 37.46752 | -122.21617 | 8427 ft | 289 kts | 142° |
| 2026-05-07 21:49 | 37.45245 | -122.20030 | 7887 ft | 277 kts | 141° |
| 2026-05-07 21:49 | 37.43787 | -122.18497 | 7289 ft | 269 kts | 141° |
| 2026-05-07 21:49 | 37.42387 | -122.17023 | 6866 ft | 255 kts | 141° |
| 2026-05-07 21:50 | 37.41267 | -122.15357 | 6308 ft | 249 kts | 116° |
| 2026-05-07 21:50 | 37.40926 | -122.13284 | 5859 ft | 237 kts | 86° |
| 2026-05-07 21:50 | 37.41404 | -122.11393 | 5272 ft | 226 kts | 58° |
| 2026-05-07 21:50 | 37.42543 | -122.10107 | 4512 ft | 220 kts | 25° |
| 2026-05-07 21:51 | 37.44024 | -122.09840 | 4030 ft | 213 kts | 352° |
| 2026-05-07 21:51 | 37.45367 | -122.10545 | 3607 ft | 207 kts | 329° |
| 2026-05-07 21:51 | 37.46644 | -122.11372 | 3137 ft | 206 kts | 333° |
| 2026-05-07 21:51 | 37.47935 | -122.12159 | 2738 ft | 204 kts | 333° |
| 2026-05-07 21:52 | 37.49177 | -122.12922 | 2561 ft | 196 kts | 333° |
| 2026-05-07 21:52 | 37.50357 | -122.13649 | 2483 ft | 184 kts | 333° |
| 2026-05-07 21:52 | 37.51422 | -122.14520 | 2475 ft | 183 kts | 319° |
| 2026-05-07 21:52 | 37.52299 | -122.15690 | 2495 ft | 183 kts | 309° |
| 2026-05-07 21:53 | 37.53043 | -122.16990 | 2497 ft | 182 kts | 303° |
| 2026-05-07 21:53 | 37.53715 | -122.18349 | 2497 ft | 182 kts | 301° |
| 2026-05-07 21:53 | 37.54338 | -122.19710 | 2497 ft | 182 kts | 299° |
| 2026-05-07 21:53 | 37.54956 | -122.21114 | 2451 ft | 183 kts | 298° |
| 2026-05-07 21:54 | 37.55561 | -122.22523 | 2297 ft | 182 kts | 298° |
| 2026-05-07 21:54 | 37.56142 | -122.23890 | 2083 ft | 170 kts | 298° |
| 2026-05-07 21:54 | 37.56669 | -122.25134 | 1890 ft | 151 kts | 298° |
| 2026-05-07 21:54 | 37.57131 | -122.26232 | 1691 ft | 133 kts | 299° |
| 2026-05-07 21:55 | 37.57556 | -122.27239 | 1515 ft | 129 kts | 300° |
| 2026-05-07 21:55 | 37.57972 | -122.28230 | 1385 ft | 127 kts | 302° |
| 2026-05-07 21:55 | 37.58386 | -122.29212 | 1223 ft | 123 kts | 299° |
| 2026-05-07 21:55 | 37.58782 | -122.30151 | 1046 ft | 120 kts | 298° |
| 2026-05-07 21:56 | 37.59163 | -122.31061 | 878 ft | 116 kts | 298° |
| 2026-05-07 21:56 | 37.59534 | -122.31945 | 735 ft | 113 kts | 299° |
| 2026-05-07 21:56 | 37.59902 | -122.32822 | 588 ft | 115 kts | 298° |
| 2026-05-07 21:56 | 37.60281 | -122.33726 | 451 ft | 115 kts | 299° |
| 2026-05-07 21:57 | 37.60647 | -122.34611 | 293 ft | 115 kts | 297° |
| 2026-05-07 21:57 | 37.61022 | -122.35497 | 149 ft | 115 kts | 298° |
| 2026-05-07 21:57 | 37.61401 | -122.36380 | 42 ft | 111 kts | 298° |
| 2026-05-07 21:57 | 37.61731 | -122.37174 | 25 ft | 92 kts | 302° |
| 2026-05-07 21:58 | 37.61951 | -122.37684 | 24 ft | 52 kts | 297° |
| 2026-05-07 21:58 | 37.62108 | -122.38069 | 24 ft | 41 kts | 297° |
| 2026-05-07 21:58 | 37.62166 | -122.38262 | 24 ft | 12 kts | 247° |
| 2026-05-07 21:58 | 37.62143 | -122.38294 | 24 ft | 0 kts | 215° |
| 2026-05-07 21:59 | 37.62142 | -122.38294 | 24 ft | 1 kts | 215° |
| 2026-05-07 21:59 | 37.62105 | -122.38336 | 24 ft | 7 kts | 257° |
| 2026-05-07 21:59 | 37.62141 | -122.38439 | 24 ft | 19 kts | 299° |
| 2026-05-07 21:59 | 37.62211 | -122.38611 | 24 ft | 21 kts | 301° |
| 2026-05-07 22:00 | 37.62265 | -122.38735 | 24 ft | 12 kts | 298° |
| 2026-05-07 22:00 | 37.62304 | -122.38825 | 24 ft | 16 kts | 298° |
| 2026-05-07 22:00 | 37.62315 | -122.38977 | 24 ft | 17 kts | 262° |
| 2026-05-07 22:00 | 37.62293 | -122.39099 | 24 ft | 11 kts | 252° |
| 2026-05-07 22:01 | 37.62228 | -122.39101 | 24 ft | 14 kts | 138° |
| 2026-05-07 22:01 | 37.62170 | -122.39057 | 24 ft | 6 kts | 156° |
| 2026-05-07 22:01 | 37.62158 | -122.39051 | 24 ft | 0 kts | 156° |
| 2026-05-07 22:01 | 37.62149 | -122.39046 | 24 ft | 0 kts | 155° |